Time;durP1;ratioP1;P1;durP2;ratioP2;P2;SDS_P1;SDS_P2;PMS_P1;PMS_P2;Temp;Humidity;BMP_temperature;BMP_pressure;BME280_temperature;BME280_humidity;BME280_pressure;Samples;Min_cycle;Max_cycle;Signal;HPM_P1;HPM_P2
2023/03/20 00:02:52;;;;;;;4.05;1.98;;;;;;;;;;10325009;28;20041;-47
2023/03/20 00:07:54;;;;;;;3.50;2.30;;;;;;;;;;10326162;28;20057;-48
2023/03/20 00:12:56;;;;;;;3.15;2.25;;;;;;;;;;10325909;28;20023;-48
2023/03/20 00:17:57;;;;;;;6.70;2.22;;;;;;;;;;10321089;28;20085;-47
2023/03/20 00:22:58;;;;;;;2.38;2.17;;;;;;;;;;10329096;28;20022;-48
2023/03/20 00:27:58;;;;;;;2.08;1.88;;;;;;;;;;10333478;28;20034;-48
2023/03/20 00:32:59;;;;;;;4.07;2.65;;;;;;;;;;10332771;28;20534;-47
2023/03/20 00:37:59;;;;;;;3.30;2.25;;;;;;;;;;10333034;28;20041;-47
2023/03/20 00:43:03;;;;;;;2.88;2.17;;;;;;;;;;10332356;28;20100;-47
2023/03/20 00:48:04;;;;;;;3.13;2.28;;;;;;;;;;10331872;28;20038;-47
2023/03/20 00:53:05;;;;;;;3.15;2.13;;;;;;;;;;10330780;28;20047;-47
2023/03/20 00:58:06;;;;;;;4.05;2.20;;;;;;;;;;10332543;28;20030;-49
2023/03/20 01:03:23;;;;;;;3.03;2.20;;;;;;;;;;10331762;28;20030;-46
2023/03/20 01:08:25;;;;;;;6.50;2.20;;;;;;;;;;10332123;28;20050;-47
2023/03/20 01:13:28;;;;;;;2.30;2.10;;;;;;;;;;10331333;28;20026;-63
2023/03/20 01:18:29;;;;;;;3.17;2.40;;;;;;;;;;10331427;28;20038;-47
2023/03/20 01:23:29;;;;;;;2.22;2.03;;;;;;;;;;10331315;28;20497;-47
2023/03/20 01:28:31;;;;;;;2.15;1.90;;;;;;;;;;10330754;28;20078;-47
2023/03/20 01:33:31;;;;;;;2.80;2.13;;;;;;;;;;10329058;28;20030;-48
2023/03/20 01:38:32;;;;;;;5.10;2.10;;;;;;;;;;10330446;28;20030;-48
2023/03/20 01:43:34;;;;;;;4.18;1.90;;;;;;;;;;10329185;28;20414;-48
2023/03/20 01:48:59;;;;;;;2.47;1.98;;;;;;;;;;10330504;28;20026;-48
2023/03/20 01:54:18;;;;;;;3.15;1.90;;;;;;;;;;10328436;28;20137;-47
2023/03/20 01:59:33;;;;;;;2.45;2.00;;;;;;;;;;10329065;28;20088;-47
2023/03/20 02:04:38;;;;;;;2.88;2.08;;;;;;;;;;10328440;28;20425;-47
2023/03/20 02:09:38;;;;;;;2.92;2.30;;;;;;;;;;10329211;28;20030;-47
2023/03/20 02:14:39;;;;;;;2.22;1.95;;;;;;;;;;10328770;28;20030;-49
2023/03/20 02:20:01;;;;;;;2.88;2.25;;;;;;;;;;10329318;28;20111;-46
2023/03/20 02:25:38;;;;;;;2.38;2.17;;;;;;;;;;10329423;28;20058;-47
2023/03/20 02:31:06;;;;;;;2.78;2.10;;;;;;;;;;10328398;28;20034;-47
2023/03/20 02:36:36;;;;;;;2.63;1.85;;;;;;;;;;10328050;28;20031;-47
2023/03/20 02:42:28;;;;;;;2.88;2.20;;;;;;;;;;10327715;28;20034;-47
2023/03/20 02:48:26;;;;;;;2.78;2.00;;;;;;;;;;10327740;28;20034;-48
2023/03/20 02:53:58;;;;;;;1.87;1.70;;;;;;;;;;10327658;28;20050;-47
2023/03/20 02:59:19;;;;;;;3.72;2.22;;;;;;;;;;10328077;28;20031;-49
2023/03/20 03:04:29;;;;;;;2.30;2.10;;;;;;;;;;10326342;28;20113;-47
2023/03/20 03:09:41;;;;;;;3.83;2.00;;;;;;;;;;10326163;28;20030;-69
2023/03/20 03:14:58;;;;;;;2.97;2.35;;;;;;;;;;10326577;28;20022;-72
2023/03/20 03:20:08;;;;;;;5.20;1.65;;;;;;;;;;10326218;28;20470;-46
2023/03/20 03:25:11;;;;;;;3.83;2.20;;;;;;;;;;10325662;28;20056;-49
2023/03/20 03:30:35;;;;;;;1.88;1.65;;;;;;;;;;10324194;28;20023;-47
2023/03/20 03:35:37;;;;;;;2.78;1.88;;;;;;;;;;10325717;28;20037;-47
2023/03/20 03:41:15;;;;;;;2.13;1.85;;;;;;;;;;10325896;28;20468;-48
2023/03/20 03:46:46;;;;;;;4.55;2.20;;;;;;;;;;10317774;28;20038;-47
2023/03/20 03:51:52;;;;;;;2.33;2.10;;;;;;;;;;10321431;28;20521;-47
2023/03/20 03:56:54;;;;;;;4.20;1.90;;;;;;;;;;10327551;28;20037;-47
2023/03/20 04:01:57;;;;;;;2.80;2.03;;;;;;;;;;10332884;28;20382;-48
2023/03/20 04:06:58;;;;;;;2.67;2.00;;;;;;;;;;10333436;28;20034;-47
2023/03/20 04:11:58;;;;;;;2.00;1.80;;;;;;;;;;10333600;28;20023;-47
2023/03/20 04:16:59;;;;;;;2.72;1.98;;;;;;;;;;10333519;28;20034;-47
2023/03/20 04:21:59;;;;;;;2.38;2.15;;;;;;;;;;10333316;28;20026;-47
2023/03/20 04:27:00;;;;;;;2.40;2.20;;;;;;;;;;10333494;28;20030;-48
2023/03/20 04:32:01;;;;;;;2.30;1.77;;;;;;;;;;10332944;28;20487;-48
2023/03/20 04:37:01;;;;;;;2.28;1.88;;;;;;;;;;10333003;28;20493;-48
2023/03/20 04:42:04;;;;;;;2.45;2.10;;;;;;;;;;10332512;28;20088;-48
2023/03/20 04:47:05;;;;;;;2.30;2.00;;;;;;;;;;10332203;28;20525;-49
2023/03/20 04:52:06;;;;;;;2.10;1.75;;;;;;;;;;10331997;28;20047;-47
2023/03/20 04:57:06;;;;;;;2.90;2.03;;;;;;;;;;10332352;28;20490;-46
2023/03/20 05:02:07;;;;;;;1.90;1.73;;;;;;;;;;10332287;28;20022;-47
2023/03/20 05:07:28;;;;;;;2.05;1.85;;;;;;;;;;10331153;28;20037;-48
2023/03/20 05:12:29;;;;;;;1.90;1.70;;;;;;;;;;10324945;28;20499;-47
2023/03/20 05:17:29;;;;;;;2.45;1.70;;;;;;;;;;10325251;28;20075;-47
2023/03/20 05:22:30;;;;;;;2.30;1.95;;;;;;;;;;10324977;28;20406;-48
2023/03/20 05:27:31;;;;;;;3.75;2.13;;;;;;;;;;10324749;28;20097;-47
2023/03/20 05:32:31;;;;;;;1.95;1.85;;;;;;;;;;10324735;28;20461;-47
2023/03/20 05:37:32;;;;;;;2.15;1.95;;;;;;;;;;10324371;28;20034;-56
2023/03/20 05:42:32;;;;;;;2.72;1.80;;;;;;;;;;10324060;28;20049;-47
2023/03/20 05:47:33;;;;;;;1.95;1.77;;;;;;;;;;10326135;28;20049;-47
2023/03/20 05:52:34;;;;;;;2.30;1.83;;;;;;;;;;10328784;28;20057;-69
2023/03/20 05:57:35;;;;;;;4.07;2.30;;;;;;;;;;10329268;28;20034;-47
2023/03/20 06:02:36;;;;;;;1.98;1.70;;;;;;;;;;10329718;28;20026;-47
2023/03/20 06:07:37;;;;;;;1.92;1.70;;;;;;;;;;10329194;28;20065;-47
2023/03/20 06:12:37;;;;;;;1.85;1.70;;;;;;;;;;10329606;28;20034;-47
2023/03/20 06:17:38;;;;;;;2.15;1.75;;;;;;;;;;10329550;28;20533;-70
2023/03/20 06:22:45;;;;;;;20.77;2.03;;;;;;;;;;10328035;28;20026;-50
2023/03/20 06:27:46;;;;;;;5.25;2.47;;;;;;;;;;10328004;28;20113;-50
2023/03/20 06:32:47;;;;;;;6.30;2.05;;;;;;;;;;10327989;28;20034;-51
2023/03/20 06:37:48;;;;;;;4.07;2.60;;;;;;;;;;10327486;28;20026;-48
2023/03/20 06:42:48;;;;;;;2.95;2.67;;;;;;;;;;10328398;28;20026;-47
2023/03/20 06:47:49;;;;;;;5.15;2.20;;;;;;;;;;10327658;28;20165;-50
2023/03/20 06:52:50;;;;;;;2.78;2.45;;;;;;;;;;10327014;28;20054;-47
2023/03/20 06:57:50;;;;;;;12.90;3.80;;;;;;;;;;10326466;28;20100;-66
2023/03/20 07:02:51;;;;;;;6.97;3.42;;;;;;;;;;10325852;28;20354;-51
2023/03/20 07:07:51;;;;;;;11.52;3.58;;;;;;;;;;10326218;28;20201;-51
2023/03/20 07:12:52;;;;;;;12.77;4.22;;;;;;;;;;10326819;28;20027;-50
2023/03/20 07:17:52;;;;;;;12.60;4.60;;;;;;;;;;10327212;28;20034;-51
2023/03/20 07:22:54;;;;;;;9.82;4.78;;;;;;;;;;10322844;28;20023;-49
2023/03/20 07:27:54;;;;;;;10.23;4.40;;;;;;;;;;10327165;28;20054;-50
2023/03/20 07:32:55;;;;;;;13.20;4.70;;;;;;;;;;10330416;28;20097;-53
2023/03/20 07:37:56;;;;;;;10.18;4.63;;;;;;;;;;10335100;28;20374;-51
2023/03/20 07:42:57;;;;;;;11.45;4.60;;;;;;;;;;10334570;28;20398;-59
2023/03/20 07:47:57;;;;;;;5.57;4.00;;;;;;;;;;10334998;28;20258;-55
2023/03/20 07:52:58;;;;;;;6.47;3.88;;;;;;;;;;10334063;28;20554;-49
2023/03/20 07:57:59;;;;;;;7.60;4.78;;;;;;;;;;10334551;28;20482;-52
2023/03/20 08:02:59;;;;;;;13.95;4.30;;;;;;;;;;10334477;28;20057;-49
2023/03/20 08:08:00;;;;;;;14.40;4.60;;;;;;;;;;10333765;28;20033;-50
2023/03/20 08:13:01;;;;;;;9.77;4.90;;;;;;;;;;10334011;28;20092;-66
2023/03/20 08:18:02;;;;;;;8.88;4.10;;;;;;;;;;10332336;28;20041;-52
2023/03/20 08:23:02;;;;;;;7.28;3.92;;;;;;;;;;10333097;28;20020;-66
2023/03/20 08:28:03;;;;;;;8.75;4.30;;;;;;;;;;10333334;28;20030;-50
2023/03/20 08:33:05;;;;;;;9.65;4.43;;;;;;;;;;10332692;28;20036;-51
2023/03/20 08:38:05;;;;;;;7.50;4.05;;;;;;;;;;10333101;28;20030;-54
2023/03/20 08:43:06;;;;;;;8.80;3.80;;;;;;;;;;10332705;28;20026;-60
2023/03/20 08:48:08;;;;;;;8.40;4.25;;;;;;;;;;10332274;28;20038;-56
2023/03/20 08:53:09;;;;;;;7.53;4.05;;;;;;;;;;10332388;28;20437;-72
2023/03/20 08:58:09;;;;;;;6.35;4.03;;;;;;;;;;10331947;28;20077;-50
2023/03/20 09:03:16;;;;;;;6.55;3.50;;;;;;;;;;10331768;28;20690;-55
2023/03/20 09:08:17;;;;;;;6.70;3.53;;;;;;;;;;10331933;28;20034;-64
2023/03/20 09:13:18;;;;;;;6.03;3.80;;;;;;;;;;10331279;28;20042;-51
2023/03/20 09:18:20;;;;;;;5.50;3.45;;;;;;;;;;10332277;28;20508;-53
2023/03/20 09:23:21;;;;;;;8.30;3.83;;;;;;;;;;10330977;28;20038;-51
2023/03/20 09:28:21;;;;;;;7.45;3.63;;;;;;;;;;10330724;28;20030;-64
2023/03/20 09:33:23;;;;;;;5.25;3.83;;;;;;;;;;10330392;28;20037;-50
2023/03/20 09:38:24;;;;;;;6.22;3.78;;;;;;;;;;10330121;28;20536;-50
2023/03/20 09:43:48;;;;;;;5.90;4.03;;;;;;;;;;10330390;28;20092;-63
2023/03/20 09:49:05;;;;;;;10.38;3.45;;;;;;;;;;10329898;28;20116;-73
2023/03/20 09:54:27;;;;;;;9.30;3.55;;;;;;;;;;10327789;28;20054;-59
2023/03/20 09:59:29;;;;;;;7.00;3.40;;;;;;;;;;10328857;28;20208;-62
2023/03/20 10:04:32;;;;;;;7.35;3.65;;;;;;;;;;10328374;28;20030;-51
2023/03/20 10:09:32;;;;;;;7.82;3.25;;;;;;;;;;10328040;28;20023;-50
2023/03/20 10:14:43;;;;;;;7.22;3.63;;;;;;;;;;10321378;28;20382;-49
2023/03/20 10:19:55;;;;;;;8.48;3.72;;;;;;;;;;10328811;28;20033;-51
2023/03/20 10:25:29;;;;;;;7.07;3.60;;;;;;;;;;10327343;28;20501;-50
2023/03/20 10:30:53;;;;;;;6.47;3.63;;;;;;;;;;10328951;28;20254;-51
2023/03/20 10:36:24;;;;;;;6.45;3.60;;;;;;;;;;10328237;28;20034;-50
2023/03/20 10:41:33;;;;;;;7.68;3.58;;;;;;;;;;10328150;28;20022;-55
2023/03/20 10:46:42;;;;;;;5.32;3.50;;;;;;;;;;10326732;28;20066;-52
2023/03/20 10:51:57;;;;;;;8.10;3.40;;;;;;;;;;10326404;28;20356;-60
2023/03/20 10:57:01;;;;;;;4.97;3.53;;;;;;;;;;10326443;28;20038;-50
2023/03/20 11:02:10;;;;;;;8.25;3.35;;;;;;;;;;10326268;28;20030;-50
2023/03/20 11:07:36;;;;;;;7.97;3.40;;;;;;;;;;10326635;28;20041;-51
2023/03/20 11:12:47;;;;;;;5.10;3.47;;;;;;;;;;10327313;28;20059;-57
2023/03/20 11:18:12;;;;;;;3.55;3.13;;;;;;;;;;10327298;28;20386;-50
2023/03/20 11:23:23;;;;;;;6.00;3.42;;;;;;;;;;10326768;28;20466;-51
2023/03/20 11:28:36;;;;;;;4.85;3.13;;;;;;;;;;10326991;28;20039;-51
2023/03/20 11:33:42;;;;;;;4.72;3.63;;;;;;;;;;10326910;28;20412;-51
2023/03/20 11:38:45;;;;;;;4.85;3.50;;;;;;;;;;10326126;28;20058;-50
2023/03/20 11:43:45;;;;;;;6.20;3.72;;;;;;;;;;10325453;28;20034;-51
2023/03/20 11:48:46;;;;;;;5.82;3.78;;;;;;;;;;10326708;28;20390;-49
2023/03/20 11:53:46;;;;;;;5.68;3.25;;;;;;;;;;10325127;28;20642;-50
2023/03/20 11:58:57;;;;;;;4.00;3.28;;;;;;;;;;10326501;28;20027;-50
2023/03/20 12:04:15;;;;;;;4.85;3.70;;;;;;;;;;10325456;28;20053;-50
2023/03/20 12:09:36;;;;;;;4.18;3.45;;;;;;;;;;10325339;28;20482;-51
2023/03/20 12:14:53;;;;;;;4.60;3.63;;;;;;;;;;10325597;28;20037;-49
2023/03/20 12:20:02;;;;;;;8.07;3.70;;;;;;;;;;10331561;28;20046;-49
2023/03/20 12:25:32;;;;;;;3.75;3.30;;;;;;;;;;10332790;28;20092;-66
2023/03/20 12:31:18;;;;;;;3.78;3.45;;;;;;;;;;10332060;28;20154;-50
2023/03/20 12:36:35;;;;;;;4.80;3.33;;;;;;;;;;10332912;28;20482;-50
2023/03/20 12:42:07;;;;;;;4.50;3.35;;;;;;;;;;10333637;28;20262;-49
2023/03/20 12:47:31;;;;;;;4.85;3.53;;;;;;;;;;10332094;28;20493;-50
2023/03/20 12:52:50;;;;;;;4.82;3.55;;;;;;;;;;10331073;28;20281;-53
2023/03/20 12:58:25;;;;;;;4.90;3.53;;;;;;;;;;10332139;28;20034;-54
2023/03/20 13:03:46;;;;;;;5.68;3.70;;;;;;;;;;10332666;28;20038;-50
2023/03/20 13:09:27;;;;;;;8.63;3.70;;;;;;;;;;10331070;28;20034;-49
2023/03/20 13:14:57;;;;;;;6.70;4.45;;;;;;;;;;10331785;28;20026;-52
2023/03/20 13:20:12;;;;;;;5.88;3.67;;;;;;;;;;10330918;28;20030;-50
2023/03/20 13:25:35;;;;;;;6.57;4.25;;;;;;;;;;10330486;28;20109;-51
2023/03/20 13:30:55;;;;;;;6.60;3.70;;;;;;;;;;10329907;28;20108;-52
2023/03/20 13:36:24;;;;;;;5.82;4.18;;;;;;;;;;10330662;28;20038;-52
2023/03/20 13:41:25;;;;;;;4.10;3.67;;;;;;;;;;10330444;28;20030;-51
2023/03/20 13:46:43;;;;;;;5.35;3.88;;;;;;;;;;10328692;28;20294;-51
2023/03/20 13:52:09;;;;;;;5.25;4.10;;;;;;;;;;10319725;28;20053;-57
2023/03/20 13:57:40;;;;;;;4.78;3.80;;;;;;;;;;10325678;28;20034;-49
2023/03/20 14:03:15;;;;;;;4.90;3.92;;;;;;;;;;10328087;28;20030;-52
2023/03/20 14:08:31;;;;;;;5.55;3.90;;;;;;;;;;10324458;28;20050;-49
2023/03/20 14:13:33;;;;;;;5.45;3.88;;;;;;;;;;10329047;28;20027;-49
2023/03/20 14:18:35;;;;;;;7.22;4.20;;;;;;;;;;10327759;28;20070;-49
2023/03/20 14:23:39;;;;;;;5.95;3.80;;;;;;;;;;10327983;28;20029;-50
2023/03/20 14:29:08;;;;;;;9.07;4.22;;;;;;;;;;10329073;28;20126;-55
2023/03/20 14:34:11;;;;;;;6.63;4.32;;;;;;;;;;10328876;28;20394;-62
2023/03/20 15:03:10;;;;;;;4.35;3.95;;;;;;;;;;10504823;27;20625;-65
2023/03/20 15:08:25;;;;;;;6.00;3.97;;;;;;;;;;10448626;28;20095;-51
2023/03/20 15:13:27;;;;;;;5.93;4.28;;;;;;;;;;10475042;28;20020;-50
2023/03/20 15:18:28;;;;;;;5.32;3.72;;;;;;;;;;10479673;28;20502;-50
2023/03/20 15:23:29;;;;;;;5.13;4.00;;;;;;;;;;10480250;28;20036;-49
2023/03/20 15:28:30;;;;;;;3.78;3.45;;;;;;;;;;10453088;28;20032;-49
2023/03/20 15:33:35;;;;;;;5.63;4.15;;;;;;;;;;10459949;28;20464;-55
2023/03/20 15:38:37;;;;;;;9.38;4.10;;;;;;;;;;10466828;28;20025;-50
2023/03/20 15:43:37;;;;;;;6.60;4.35;;;;;;;;;;10471779;28;20104;-49
2023/03/20 15:48:38;;;;;;;4.53;3.47;;;;;;;;;;10460692;28;20089;-49
2023/03/20 15:53:43;;;;;;;6.18;4.10;;;;;;;;;;10467070;28;20032;-50
2023/03/20 15:58:47;;;;;;;7.53;4.22;;;;;;;;;;10460649;28;20048;-49
2023/03/20 16:03:48;;;;;;;6.60;3.78;;;;;;;;;;10441836;28;20025;-50
2023/03/20 16:09:04;;;;;;;4.93;4.03;;;;;;;;;;10450196;28;20384;-48
2023/03/20 16:14:09;;;;;;;4.97;3.92;;;;;;;;;;10428077;28;20460;-53
2023/03/20 16:19:18;;;;;;;6.45;4.20;;;;;;;;;;10414981;28;20060;-49
2023/03/20 16:24:33;;;;;;;5.30;3.65;;;;;;;;;;10437213;28;20021;-49
2023/03/20 16:29:34;;;;;;;5.57;4.18;;;;;;;;;;10431715;28;20151;-49
2023/03/20 16:34:37;;;;;;;5.38;3.95;;;;;;;;;;10443527;28;20342;-49
2023/03/20 16:39:37;;;;;;;4.38;3.78;;;;;;;;;;10459420;28;20235;-50
2023/03/20 16:44:40;;;;;;;7.70;3.75;;;;;;;;;;10440712;28;20090;-49
2023/03/20 16:49:50;;;;;;;7.78;4.05;;;;;;;;;;10436160;28;20024;-52
2023/03/20 16:54:50;;;;;;;4.38;3.50;;;;;;;;;;10418911;28;20118;-49
2023/03/20 16:59:56;;;;;;;4.03;3.20;;;;;;;;;;10412141;28;20188;-50
2023/03/20 17:05:03;;;;;;;4.05;3.40;;;;;;;;;;10438140;28;20057;-48
2023/03/20 17:10:20;;;;;;;4.13;3.40;;;;;;;;;;10447201;28;20057;-50
2023/03/20 17:15:23;;;;;;;5.13;3.60;;;;;;;;;;10448378;28;20025;-49
2023/03/20 17:20:27;;;;;;;5.07;3.80;;;;;;;;;;10430647;28;20255;-51
2023/03/20 17:25:28;;;;;;;4.68;3.60;;;;;;;;;;10440322;28;20039;-54
2023/03/20 17:30:28;;;;;;;5.10;3.72;;;;;;;;;;10442531;28;20052;-49
2023/03/20 17:35:29;;;;;;;4.70;3.65;;;;;;;;;;10428317;28;20022;-54
2023/03/20 17:40:29;;;;;;;4.65;3.70;;;;;;;;;;10439869;28;20028;-49
2023/03/20 17:45:30;;;;;;;4.15;3.70;;;;;;;;;;10444477;28;20021;-48
2023/03/20 17:50:30;;;;;;;4.80;3.72;;;;;;;;;;10444972;28;20029;-49
2023/03/20 17:55:31;;;;;;;4.18;3.55;;;;;;;;;;10444721;28;20035;-49
2023/03/20 18:00:31;;;;;;;5.35;3.70;;;;;;;;;;10422049;28;20099;-49
2023/03/20 18:05:33;;;;;;;5.22;3.65;;;;;;;;;;10446231;28;20021;-49
2023/03/20 18:10:35;;;;;;;6.43;4.22;;;;;;;;;;10446337;28;20031;-49
2023/03/20 18:15:38;;;;;;;6.32;4.00;;;;;;;;;;10432811;28;20160;-51
2023/03/20 18:20:40;;;;;;;7.55;3.88;;;;;;;;;;10425878;28;20033;-55
2023/03/20 18:25:41;;;;;;;7.13;3.88;;;;;;;;;;10426300;28;20040;-50
2023/03/20 18:30:41;;;;;;;8.15;4.35;;;;;;;;;;10414296;28;20036;-48
2023/03/20 18:35:42;;;;;;;11.82;4.30;;;;;;;;;;10433030;28;20032;-68
2023/03/20 18:40:45;;;;;;;7.03;4.22;;;;;;;;;;10434571;28;20119;-48
2023/03/20 18:45:46;;;;;;;4.90;4.30;;;;;;;;;;10430331;28;20029;-49
2023/03/20 18:50:49;;;;;;;6.80;4.07;;;;;;;;;;10442322;28;20021;-47
2023/03/20 18:55:50;;;;;;;7.75;3.88;;;;;;;;;;10444038;28;20108;-49
2023/03/20 19:00:53;;;;;;;5.88;4.05;;;;;;;;;;10439680;28;20055;-50
2023/03/20 19:05:56;;;;;;;6.35;4.00;;;;;;;;;;10446081;28;20021;-49
2023/03/20 19:10:57;;;;;;;6.15;4.03;;;;;;;;;;10442860;28;20021;-53
2023/03/20 19:15:58;;;;;;;11.00;4.28;;;;;;;;;;10433545;28;20427;-48
2023/03/20 19:20:59;;;;;;;8.20;4.22;;;;;;;;;;10432810;28;20032;-48
2023/03/20 19:26:00;;;;;;;5.70;4.38;;;;;;;;;;10428776;28;20040;-75
2023/03/20 19:31:00;;;;;;;5.72;4.60;;;;;;;;;;10425062;28;20092;-50
2023/03/20 19:36:02;;;;;;;11.77;5.45;;;;;;;;;;10417321;28;20468;-49
2023/03/20 19:41:03;;;;;;;8.55;4.75;;;;;;;;;;10430358;28;20036;-48
2023/03/20 19:46:04;;;;;;;7.57;4.70;;;;;;;;;;10432688;28;20033;-61
2023/03/20 19:51:04;;;;;;;10.02;4.35;;;;;;;;;;10431948;28;20029;-50
2023/03/20 19:56:05;;;;;;;8.30;4.93;;;;;;;;;;10428623;28;20025;-55
2023/03/20 20:01:10;;;;;;;7.15;3.65;;;;;;;;;;10421877;28;20063;-49
2023/03/20 20:06:11;;;;;;;8.10;4.20;;;;;;;;;;10431708;28;20105;-50
2023/03/20 20:11:13;;;;;;;8.07;4.43;;;;;;;;;;10439571;28;20173;-47
2023/03/20 20:16:13;;;;;;;7.95;4.47;;;;;;;;;;10443913;28;20155;-67
2023/03/20 20:21:15;;;;;;;8.45;4.88;;;;;;;;;;10426509;28;20037;-48
2023/03/20 20:26:15;;;;;;;14.82;5.22;;;;;;;;;;10437091;28;20043;-50
2023/03/20 20:31:16;;;;;;;18.67;5.43;;;;;;;;;;10431268;28;20495;-49
2023/03/20 20:36:17;;;;;;;9.85;4.85;;;;;;;;;;10433330;28;20357;-49
2023/03/20 20:41:17;;;;;;;25.23;6.18;;;;;;;;;;10423800;28;20423;-51
2023/03/20 20:46:18;;;;;;;12.65;5.65;;;;;;;;;;10427804;28;20218;-49
2023/03/20 20:51:18;;;;;;;7.97;4.30;;;;;;;;;;10421842;28;20052;-63
2023/03/20 20:56:19;;;;;;;11.18;4.60;;;;;;;;;;10417170;28;20041;-49
2023/03/20 21:01:19;;;;;;;13.35;4.53;;;;;;;;;;10425496;28;20052;-47
2023/03/20 21:06:20;;;;;;;18.02;5.28;;;;;;;;;;10438963;28;20033;-49
2023/03/20 21:11:21;;;;;;;11.55;5.10;;;;;;;;;;10432015;28;20025;-60
2023/03/20 21:16:22;;;;;;;33.58;7.03;;;;;;;;;;10432457;28;20029;-47
2023/03/20 21:21:23;;;;;;;42.28;8.70;;;;;;;;;;10439631;28;20472;-49
2023/03/20 21:26:23;;;;;;;30.75;8.25;;;;;;;;;;10445995;28;20060;-47
2023/03/20 21:31:25;;;;;;;30.40;7.32;;;;;;;;;;10442728;28;20439;-48
2023/03/20 21:36:26;;;;;;;23.10;6.65;;;;;;;;;;10442797;28;20392;-50
2023/03/20 21:41:26;;;;;;;17.25;6.75;;;;;;;;;;10423154;28;20244;-51
2023/03/20 21:46:27;;;;;;;25.55;5.80;;;;;;;;;;10426983;28;20037;-48
2023/03/20 21:51:28;;;;;;;16.65;5.38;;;;;;;;;;10426835;28;20048;-50
2023/03/20 21:56:28;;;;;;;14.93;5.72;;;;;;;;;;10431948;28;20021;-53
2023/03/20 22:01:29;;;;;;;16.83;5.65;;;;;;;;;;10416668;28;20053;-47
2023/03/20 22:06:29;;;;;;;19.38;6.07;;;;;;;;;;10443101;28;20464;-47
2023/03/20 22:11:30;;;;;;;24.25;5.63;;;;;;;;;;10439214;28;20052;-47
2023/03/20 22:16:31;;;;;;;17.77;5.32;;;;;;;;;;10434533;28;20033;-49
2023/03/20 22:21:31;;;;;;;18.13;4.97;;;;;;;;;;10426126;28;20056;-48
2023/03/20 22:26:32;;;;;;;9.38;4.57;;;;;;;;;;10432321;28;20025;-47
2023/03/20 22:31:32;;;;;;;14.02;5.30;;;;;;;;;;10439329;28;20033;-48
2023/03/20 22:36:33;;;;;;;14.82;4.70;;;;;;;;;;10419503;28;20028;-48
2023/03/20 22:41:34;;;;;;;23.15;5.60;;;;;;;;;;10433283;28;20017;-47
2023/03/20 22:46:34;;;;;;;12.02;5.20;;;;;;;;;;10443100;28;20017;-47
2023/03/20 22:51:35;;;;;;;14.60;5.07;;;;;;;;;;10411506;28;20037;-47
2023/03/20 22:56:35;;;;;;;14.23;5.18;;;;;;;;;;10438867;28;20025;-48
2023/03/20 23:01:36;;;;;;;12.13;5.18;;;;;;;;;;10420054;28;20042;-48
2023/03/20 23:06:36;;;;;;;10.30;4.57;;;;;;;;;;10420359;28;20075;-48
2023/03/20 23:11:40;;;;;;;15.27;5.30;;;;;;;;;;10438442;28;20060;-56
2023/03/20 23:16:40;;;;;;;11.27;4.55;;;;;;;;;;10437209;28;20046;-48
2023/03/20 23:21:41;;;;;;;16.63;5.15;;;;;;;;;;10445068;28;20025;-49
2023/03/20 23:26:41;;;;;;;13.45;5.05;;;;;;;;;;10453278;28;20021;-48
2023/03/20 23:31:42;;;;;;;12.55;5.10;;;;;;;;;;10450141;28;20494;-66
2023/03/20 23:36:42;;;;;;;9.20;4.75;;;;;;;;;;10444371;28;20403;-66
2023/03/20 23:41:43;;;;;;;11.93;4.15;;;;;;;;;;10439724;28;20384;-48
2023/03/20 23:46:44;;;;;;;8.13;4.68;;;;;;;;;;10446244;28;20469;-49
2023/03/20 23:51:45;;;;;;;11.27;4.85;;;;;;;;;;10449640;28;20033;-52
2023/03/20 23:56:46;;;;;;;13.88;4.50;;;;;;;;;;10440700;28;20223;-48
